Grandview, TX (76050)

5:17 PM CST on December 25, 2014 (GMT -0600)
SE Johnson County | Change Station
CLOSE
Current Station
Personal Weather Station
Location: Grandview, TX
Elevation: 614 ft
Nearby Weather Stations
Active Advisory: Wind Advisory

Elev 614 ft 32.30 °N, 97.13 °W | Updated 2 minutes ago

Clear
Clear
58.9 °F
Feels Like 58.9 °F
N
7.0
Wind Variable Wind from SSE
Gusts 8.0 mph

Today
High -- | Low -- °F
--% Chance of Precip.
Yesterday
High -- | Low -- °F
Precip. -- in
7:27 AM 5:30 PM
Waxing Crescent, 20% visible
Pressure 29.93 in
Visibility 10.0 miles
Clouds Clear
Dew Point 35 °F
Humidity 41%
Rainfall 0.00 in
Snow Depth Not available.
UV 0 out of 12
Pollen 11.00 out of 12
Air Quality Not available.
Flu Activity Not available.
METAR KINJ 252255Z AUTO 17020G26KT 10SM CLR 16/M01 A2993 RMK AO2 T01551010

More Conditions Fewer Conditions

Pressure 29.93 in
Visibility 10.0 miles
Clouds Clear
Dew Point 35 °F
Humidity 41%
Rainfall 0.00 in
Snow Depth Not available.
UV 0 out of 12
Pollen 11.00 out of 12
Air Quality Not available.
Flu Activity Not available.
METAR KINJ 252255Z AUTO 17020G26KT 10SM CLR 16/M01 A2993 RMK AO2 T01551010

More Conditions Fewer Conditions

10-Day Weather Forecast

Almanac

Astronomy

Dec. 25, 2014 Rise Set
Actual Time
Civil Twilight
Nautical Twilight
Astronomical Twilight
Moon
Length of Visible Light
Length of Day
Tomorrow will be .
, % of the Moon is Illuminated

Today's Extremes

State Highs State Lows

Community

WunderPhotos

Upload Photos

1,780,440 photos uploaded!

WunderBlogs® & News

Nearby

Air Quality

  Air Quality AQ Index Pollutant
Not available.

Snow Depth

Station Depth Elevation

Earthquake Activity

City Distance Mag. Time & Date
Minimum magnitude displayed is 2.5.

Coastal Water Temperatures

Place Temperature

Nearby Weather Stations